Terminal Aerodrome Forecast
Issued by NWS Wilmington, NC

Home | Current Version | Previous Version | Text Only | Print | Product List | Glossary On
Versions: 1 2 3 4 5 6 7 8 9 10 11 12
000
FTUS42 KILM 251735
TAFFLO
TAF
KFLO 251735Z 2518/2618 12005KT P6SM SCT040
     FM260900 10003KT 5SM BR BKN015
     FM261500 17006KT P6SM SCT040=

USA.gov is the U.S. government's official web portal to all federal, state and local government web resources and services.